sensor_id;sensor_type;location;lat;lon;timestamp;P1;durP1;ratioP1;P2;durP2;ratioP2
46563;SDS011;32291;52.010;4.446;2022-07-23T00:00:51;3.30;;;2.20;;
46563;SDS011;32291;52.010;4.446;2022-07-23T00:01:53;2.75;;;2.13;;
46563;SDS011;32291;52.010;4.446;2022-07-23T00:02:55;2.80;;;2.10;;
46563;SDS011;32291;52.010;4.446;2022-07-23T00:03:56;5.82;;;2.10;;
46563;SDS011;32291;52.010;4.446;2022-07-23T00:04:59;2.33;;;1.90;;
46563;SDS011;32291;52.010;4.446;2022-07-23T00:06:01;5.22;;;2.40;;
46563;SDS011;32291;52.010;4.446;2022-07-23T00:07:03;3.80;;;2.33;;
46563;SDS011;32291;52.010;4.446;2022-07-23T00:08:05;3.25;;;1.92;;
46563;SDS011;32291;52.010;4.446;2022-07-23T00:09:08;3.55;;;2.10;;
46563;SDS011;32291;52.010;4.446;2022-07-23T00:10:11;3.05;;;2.45;;
46563;SDS011;32291;52.010;4.446;2022-07-23T00:11:13;2.83;;;2.20;;
46563;SDS011;32291;52.010;4.446;2022-07-23T00:12:15;3.15;;;2.00;;
46563;SDS011;32291;52.010;4.446;2022-07-23T00:13:17;2.75;;;2.00;;
46563;SDS011;32291;52.010;4.446;2022-07-23T00:14:19;6.60;;;2.33;;
46563;SDS011;32291;52.010;4.446;2022-07-23T00:15:21;2.95;;;2.00;;
46563;SDS011;32291;52.010;4.446;2022-07-23T00:16:23;2.28;;;2.10;;
46563;SDS011;32291;52.010;4.446;2022-07-23T00:17:25;2.95;;;2.25;;
46563;SDS011;32291;52.010;4.446;2022-07-23T00:18:28;3.78;;;2.30;;
46563;SDS011;32291;52.010;4.446;2022-07-23T00:19:30;3.78;;;2.10;;
46563;SDS011;32291;52.010;4.446;2022-07-23T00:20:32;3.63;;;2.15;;
46563;SDS011;32291;52.010;4.446;2022-07-23T00:21:33;2.70;;;2.20;;
46563;SDS011;32291;52.010;4.446;2022-07-23T00:22:36;3.53;;;2.35;;
46563;SDS011;32291;52.010;4.446;2022-07-23T00:23:38;3.22;;;2.15;;
46563;SDS011;32291;52.010;4.446;2022-07-23T00:24:40;3.13;;;2.08;;
46563;SDS011;32291;52.010;4.446;2022-07-23T00:25:42;2.30;;;2.10;;
46563;SDS011;32291;52.010;4.446;2022-07-23T00:26:45;4.38;;;2.47;;
46563;SDS011;32291;52.010;4.446;2022-07-23T00:27:47;4.05;;;2.22;;
46563;SDS011;32291;52.010;4.446;2022-07-23T00:28:50;2.67;;;2.40;;
46563;SDS011;32291;52.010;4.446;2022-07-23T00:29:52;3.25;;;2.10;;
46563;SDS011;32291;52.010;4.446;2022-07-23T00:30:54;4.63;;;2.70;;
46563;SDS011;32291;52.010;4.446;2022-07-23T00:31:56;3.38;;;2.58;;
46563;SDS011;32291;52.010;4.446;2022-07-23T00:32:59;8.73;;;2.65;;
46563;SDS011;32291;52.010;4.446;2022-07-23T00:34:06;4.80;;;2.80;;
46563;SDS011;32291;52.010;4.446;2022-07-23T00:35:08;3.35;;;2.55;;
46563;SDS011;32291;52.010;4.446;2022-07-23T00:36:10;3.95;;;2.30;;
46563;SDS011;32291;52.010;4.446;2022-07-23T00:37:12;3.63;;;2.53;;
46563;SDS011;32291;52.010;4.446;2022-07-23T00:38:14;4.75;;;3.13;;
46563;SDS011;32291;52.010;4.446;2022-07-23T00:39:17;4.82;;;2.70;;
46563;SDS011;32291;52.010;4.446;2022-07-23T00:40:19;3.22;;;2.92;;
46563;SDS011;32291;52.010;4.446;2022-07-23T00:41:22;3.08;;;2.53;;
46563;SDS011;32291;52.010;4.446;2022-07-23T00:42:24;5.55;;;2.92;;
46563;SDS011;32291;52.010;4.446;2022-07-23T00:43:26;3.40;;;2.50;;
46563;SDS011;32291;52.010;4.446;2022-07-23T00:44:28;4.35;;;2.55;;
46563;SDS011;32291;52.010;4.446;2022-07-23T00:45:30;6.60;;;2.72;;
46563;SDS011;32291;52.010;4.446;2022-07-23T00:46:33;2.80;;;2.60;;
46563;SDS011;32291;52.010;4.446;2022-07-23T00:47:34;3.10;;;2.45;;
46563;SDS011;32291;52.010;4.446;2022-07-23T00:48:37;2.90;;;2.65;;
46563;SDS011;32291;52.010;4.446;2022-07-23T00:49:39;3.00;;;2.45;;
46563;SDS011;32291;52.010;4.446;2022-07-23T00:50:42;2.80;;;2.50;;
46563;SDS011;32291;52.010;4.446;2022-07-23T00:51:45;3.42;;;2.45;;
46563;SDS011;32291;52.010;4.446;2022-07-23T00:52:49;3.67;;;2.30;;
46563;SDS011;32291;52.010;4.446;2022-07-23T00:53:53;3.00;;;2.70;;
46563;SDS011;32291;52.010;4.446;2022-07-23T00:54:55;3.38;;;2.67;;
46563;SDS011;32291;52.010;4.446;2022-07-23T00:55:58;4.00;;;2.72;;
46563;SDS011;32291;52.010;4.446;2022-07-23T00:57:00;2.67;;;2.42;;
46563;SDS011;32291;52.010;4.446;2022-07-23T00:58:02;4.22;;;3.28;;
46563;SDS011;32291;52.010;4.446;2022-07-23T00:59:06;3.05;;;2.67;;
46563;SDS011;32291;52.010;4.446;2022-07-23T01:00:10;4.88;;;2.78;;
46563;SDS011;32291;52.010;4.446;2022-07-23T01:01:15;3.42;;;2.88;;
46563;SDS011;32291;52.010;4.446;2022-07-23T01:02:17;4.60;;;2.95;;
46563;SDS011;32291;52.010;4.446;2022-07-23T01:03:19;3.63;;;2.70;;
46563;SDS011;32291;52.010;4.446;2022-07-23T01:04:21;3.80;;;3.50;;
46563;SDS011;32291;52.010;4.446;2022-07-23T01:05:24;7.57;;;3.10;;
46563;SDS011;32291;52.010;4.446;2022-07-23T01:06:26;5.28;;;2.72;;
46563;SDS011;32291;52.010;4.446;2022-07-23T01:07:28;5.25;;;3.45;;
46563;SDS011;32291;52.010;4.446;2022-07-23T01:08:31;4.88;;;3.40;;
46563;SDS011;32291;52.010;4.446;2022-07-23T01:09:33;6.90;;;3.10;;
46563;SDS011;32291;52.010;4.446;2022-07-23T01:10:35;4.40;;;2.55;;
46563;SDS011;32291;52.010;4.446;2022-07-23T01:11:37;5.72;;;3.13;;
46563;SDS011;32291;52.010;4.446;2022-07-23T01:12:41;4.57;;;2.90;;
46563;SDS011;32291;52.010;4.446;2022-07-23T01:13:43;4.38;;;3.10;;
46563;SDS011;32291;52.010;4.446;2022-07-23T01:14:45;4.47;;;3.30;;
46563;SDS011;32291;52.010;4.446;2022-07-23T01:15:59;5.50;;;3.42;;
46563;SDS011;32291;52.010;4.446;2022-07-23T01:17:01;3.30;;;3.00;;
46563;SDS011;32291;52.010;4.446;2022-07-23T01:18:04;3.35;;;3.05;;
46563;SDS011;32291;52.010;4.446;2022-07-23T01:19:09;5.07;;;3.28;;
46563;SDS011;32291;52.010;4.446;2022-07-23T01:20:12;3.80;;;3.22;;
46563;SDS011;32291;52.010;4.446;2022-07-23T01:21:18;3.67;;;2.58;;
46563;SDS011;32291;52.010;4.446;2022-07-23T01:22:22;4.30;;;3.20;;
46563;SDS011;32291;52.010;4.446;2022-07-23T01:23:29;3.35;;;3.05;;
46563;SDS011;32291;52.010;4.446;2022-07-23T01:24:31;5.57;;;3.10;;
46563;SDS011;32291;52.010;4.446;2022-07-23T01:25:33;3.95;;;2.92;;
46563;SDS011;32291;52.010;4.446;2022-07-23T01:26:36;4.28;;;2.90;;
46563;SDS011;32291;52.010;4.446;2022-07-23T01:27:42;5.90;;;2.97;;
46563;SDS011;32291;52.010;4.446;2022-07-23T01:28:44;3.33;;;2.90;;
46563;SDS011;32291;52.010;4.446;2022-07-23T01:29:47;5.03;;;2.88;;
46563;SDS011;32291;52.010;4.446;2022-07-23T01:30:49;3.13;;;2.80;;
46563;SDS011;32291;52.010;4.446;2022-07-23T01:31:52;3.08;;;2.75;;
46563;SDS011;32291;52.010;4.446;2022-07-23T01:32:53;3.72;;;3.08;;
46563;SDS011;32291;52.010;4.446;2022-07-23T01:33:55;3.03;;;2.65;;
46563;SDS011;32291;52.010;4.446;2022-07-23T01:35:00;4.05;;;3.00;;
46563;SDS011;32291;52.010;4.446;2022-07-23T01:36:03;10.80;;;3.50;;
46563;SDS011;32291;52.010;4.446;2022-07-23T01:37:06;3.75;;;3.00;;
46563;SDS011;32291;52.010;4.446;2022-07-23T01:38:08;4.40;;;3.00;;
46563;SDS011;32291;52.010;4.446;2022-07-23T01:39:10;9.95;;;3.78;;
46563;SDS011;32291;52.010;4.446;2022-07-23T01:40:12;2.95;;;2.65;;
46563;SDS011;32291;52.010;4.446;2022-07-23T01:41:14;5.05;;;2.80;;
46563;SDS011;32291;52.010;4.446;2022-07-23T01:42:16;3.83;;;2.80;;
46563;SDS011;32291;52.010;4.446;2022-07-23T01:43:18;2.75;;;2.38;;
46563;SDS011;32291;52.010;4.446;2022-07-23T01:44:20;2.97;;;2.67;;
46563;SDS011;32291;52.010;4.446;2022-07-23T01:45:22;3.50;;;3.05;;
46563;SDS011;32291;52.010;4.446;2022-07-23T01:46:24;3.63;;;2.67;;
46563;SDS011;32291;52.010;4.446;2022-07-23T01:47:26;3.60;;;3.00;;
46563;SDS011;32291;52.010;4.446;2022-07-23T01:48:28;3.97;;;2.78;;
46563;SDS011;32291;52.010;4.446;2022-07-23T01:49:30;3.20;;;2.83;;
46563;SDS011;32291;52.010;4.446;2022-07-23T01:50:32;3.45;;;3.08;;
46563;SDS011;32291;52.010;4.446;2022-07-23T01:51:34;5.07;;;2.80;;
46563;SDS011;32291;52.010;4.446;2022-07-23T01:52:36;5.65;;;2.90;;
46563;SDS011;32291;52.010;4.446;2022-07-23T01:53:38;3.80;;;2.78;;
46563;SDS011;32291;52.010;4.446;2022-07-23T01:54:40;3.95;;;3.50;;
46563;SDS011;32291;52.010;4.446;2022-07-23T01:55:42;3.92;;;2.95;;
46563;SDS011;32291;52.010;4.446;2022-07-23T01:56:45;4.22;;;2.75;;
46563;SDS011;32291;52.010;4.446;2022-07-23T01:57:47;3.10;;;2.75;;
46563;SDS011;32291;52.010;4.446;2022-07-23T01:58:49;3.05;;;2.70;;
46563;SDS011;32291;52.010;4.446;2022-07-23T01:59:51;3.85;;;2.92;;
46563;SDS011;32291;52.010;4.446;2022-07-23T02:00:54;5.18;;;3.15;;
46563;SDS011;32291;52.010;4.446;2022-07-23T02:01:57;3.03;;;2.72;;
46563;SDS011;32291;52.010;4.446;2022-07-23T02:02:59;4.90;;;2.80;;
46563;SDS011;32291;52.010;4.446;2022-07-23T02:04:01;3.90;;;2.95;;
46563;SDS011;32291;52.010;4.446;2022-07-23T02:05:03;3.10;;;2.90;;
46563;SDS011;32291;52.010;4.446;2022-07-23T02:06:05;4.80;;;3.08;;
46563;SDS011;32291;52.010;4.446;2022-07-23T02:07:07;4.65;;;3.20;;
46563;SDS011;32291;52.010;4.446;2022-07-23T02:08:10;2.67;;;2.47;;
46563;SDS011;32291;52.010;4.446;2022-07-23T02:09:12;4.93;;;2.67;;
46563;SDS011;32291;52.010;4.446;2022-07-23T02:10:15;4.45;;;3.20;;
46563;SDS011;32291;52.010;4.446;2022-07-23T02:11:17;3.03;;;2.50;;
46563;SDS011;32291;52.010;4.446;2022-07-23T02:12:20;3.95;;;2.72;;
46563;SDS011;32291;52.010;4.446;2022-07-23T02:13:22;3.60;;;3.30;;
46563;SDS011;32291;52.010;4.446;2022-07-23T02:14:25;3.50;;;3.20;;
46563;SDS011;32291;52.010;4.446;2022-07-23T02:15:27;6.03;;;3.13;;
46563;SDS011;32291;52.010;4.446;2022-07-23T02:16:29;4.00;;;2.75;;
46563;SDS011;32291;52.010;4.446;2022-07-23T02:17:31;4.68;;;3.30;;
46563;SDS011;32291;52.010;4.446;2022-07-23T02:18:34;4.40;;;3.00;;
46563;SDS011;32291;52.010;4.446;2022-07-23T02:19:35;4.78;;;3.28;;
46563;SDS011;32291;52.010;4.446;2022-07-23T02:20:37;4.28;;;3.30;;
46563;SDS011;32291;52.010;4.446;2022-07-23T02:21:40;3.28;;;2.97;;
46563;SDS011;32291;52.010;4.446;2022-07-23T02:22:42;4.93;;;3.60;;
46563;SDS011;32291;52.010;4.446;2022-07-23T02:23:45;3.47;;;3.15;;
46563;SDS011;32291;52.010;4.446;2022-07-23T02:24:47;5.63;;;3.30;;
46563;SDS011;32291;52.010;4.446;2022-07-23T02:25:49;5.53;;;3.53;;
46563;SDS011;32291;52.010;4.446;2022-07-23T02:26:51;3.47;;;3.15;;
46563;SDS011;32291;52.010;4.446;2022-07-23T02:27:53;3.42;;;2.97;;
46563;SDS011;32291;52.010;4.446;2022-07-23T02:28:55;4.32;;;3.05;;
46563;SDS011;32291;52.010;4.446;2022-07-23T02:29:56;4.53;;;3.38;;
46563;SDS011;32291;52.010;4.446;2022-07-23T02:30:59;4.05;;;3.65;;
46563;SDS011;32291;52.010;4.446;2022-07-23T02:32:01;4.82;;;2.83;;
46563;SDS011;32291;52.010;4.446;2022-07-23T02:33:03;5.10;;;3.20;;
46563;SDS011;32291;52.010;4.446;2022-07-23T02:34:04;3.63;;;3.30;;
46563;SDS011;32291;52.010;4.446;2022-07-23T02:35:07;4.53;;;3.45;;
46563;SDS011;32291;52.010;4.446;2022-07-23T02:36:10;4.22;;;3.00;;
46563;SDS011;32291;52.010;4.446;2022-07-23T02:37:11;3.78;;;3.47;;
46563;SDS011;32291;52.010;4.446;2022-07-23T02:38:14;5.18;;;3.17;;
46563;SDS011;32291;52.010;4.446;2022-07-23T02:39:16;3.03;;;2.80;;
46563;SDS011;32291;52.010;4.446;2022-07-23T02:40:18;3.58;;;3.17;;
46563;SDS011;32291;52.010;4.446;2022-07-23T02:41:20;4.97;;;3.80;;
46563;SDS011;32291;52.010;4.446;2022-07-23T02:42:22;3.22;;;3.00;;
46563;SDS011;32291;52.010;4.446;2022-07-23T02:43:24;4.72;;;3.50;;
46563;SDS011;32291;52.010;4.446;2022-07-23T02:44:26;5.93;;;3.40;;
46563;SDS011;32291;52.010;4.446;2022-07-23T02:45:28;4.88;;;3.42;;
46563;SDS011;32291;52.010;4.446;2022-07-23T02:46:30;3.28;;;2.90;;
46563;SDS011;32291;52.010;4.446;2022-07-23T02:47:32;4.38;;;3.95;;
46563;SDS011;32291;52.010;4.446;2022-07-23T02:48:35;5.05;;;3.20;;
46563;SDS011;32291;52.010;4.446;2022-07-23T02:49:37;4.25;;;2.88;;
46563;SDS011;32291;52.010;4.446;2022-07-23T02:50:39;3.78;;;3.08;;
46563;SDS011;32291;52.010;4.446;2022-07-23T02:51:42;5.75;;;3.45;;
46563;SDS011;32291;52.010;4.446;2022-07-23T02:52:44;3.63;;;3.28;;
46563;SDS011;32291;52.010;4.446;2022-07-23T02:53:46;4.63;;;3.22;;
46563;SDS011;32291;52.010;4.446;2022-07-23T02:54:49;5.15;;;3.35;;
46563;SDS011;32291;52.010;4.446;2022-07-23T02:55:51;3.75;;;3.33;;
46563;SDS011;32291;52.010;4.446;2022-07-23T02:56:53;5.93;;;3.55;;
46563;SDS011;32291;52.010;4.446;2022-07-23T02:57:55;3.60;;;3.30;;
46563;SDS011;32291;52.010;4.446;2022-07-23T02:58:57;5.47;;;3.10;;
46563;SDS011;32291;52.010;4.446;2022-07-23T02:59:59;4.25;;;3.45;;
46563;SDS011;32291;52.010;4.446;2022-07-23T03:01:01;4.30;;;3.55;;
46563;SDS011;32291;52.010;4.446;2022-07-23T03:02:04;3.78;;;3.47;;
46563;SDS011;32291;52.010;4.446;2022-07-23T03:03:06;6.05;;;3.58;;
46563;SDS011;32291;52.010;4.446;2022-07-23T03:04:09;4.72;;;3.05;;
46563;SDS011;32291;52.010;4.446;2022-07-23T03:05:11;4.55;;;3.75;;
46563;SDS011;32291;52.010;4.446;2022-07-23T03:06:13;4.25;;;3.85;;
46563;SDS011;32291;52.010;4.446;2022-07-23T03:07:16;4.60;;;3.97;;
46563;SDS011;32291;52.010;4.446;2022-07-23T03:08:18;4.50;;;3.85;;
46563;SDS011;32291;52.010;4.446;2022-07-23T03:09:21;4.55;;;3.80;;
46563;SDS011;32291;52.010;4.446;2022-07-23T03:10:23;3.63;;;3.28;;
46563;SDS011;32291;52.010;4.446;2022-07-23T03:11:25;3.38;;;3.13;;
46563;SDS011;32291;52.010;4.446;2022-07-23T03:12:28;4.55;;;3.38;;
46563;SDS011;32291;52.010;4.446;2022-07-23T03:13:30;6.18;;;3.72;;
46563;SDS011;32291;52.010;4.446;2022-07-23T03:14:32;4.30;;;3.90;;
46563;SDS011;32291;52.010;4.446;2022-07-23T03:15:35;4.35;;;3.95;;
46563;SDS011;32291;52.010;4.446;2022-07-23T03:16:36;6.72;;;4.10;;
46563;SDS011;32291;52.010;4.446;2022-07-23T03:17:38;7.82;;;4.35;;
46563;SDS011;32291;52.010;4.446;2022-07-23T03:18:40;6.25;;;4.07;;
46563;SDS011;32291;52.010;4.446;2022-07-23T03:19:42;4.45;;;4.05;;
46563;SDS011;32291;52.010;4.446;2022-07-23T03:20:44;6.78;;;4.05;;
46563;SDS011;32291;52.010;4.446;2022-07-23T03:21:46;5.75;;;4.10;;
46563;SDS011;32291;52.010;4.446;2022-07-23T03:22:48;6.18;;;4.15;;
46563;SDS011;32291;52.010;4.446;2022-07-23T03:23:50;7.20;;;3.75;;
46563;SDS011;32291;52.010;4.446;2022-07-23T03:24:52;4.03;;;3.72;;
46563;SDS011;32291;52.010;4.446;2022-07-23T03:25:57;5.95;;;4.57;;
46563;SDS011;32291;52.010;4.446;2022-07-23T03:26:59;4.15;;;3.60;;
46563;SDS011;32291;52.010;4.446;2022-07-23T03:28:00;5.05;;;3.67;;
46563;SDS011;32291;52.010;4.446;2022-07-23T03:29:02;6.43;;;3.80;;
46563;SDS011;32291;52.010;4.446;2022-07-23T03:30:05;3.50;;;3.20;;
46563;SDS011;32291;52.010;4.446;2022-07-23T03:31:08;5.15;;;4.40;;
46563;SDS011;32291;52.010;4.446;2022-07-23T03:32:11;5.20;;;3.63;;
46563;SDS011;32291;52.010;4.446;2022-07-23T03:33:14;4.05;;;3.60;;
46563;SDS011;32291;52.010;4.446;2022-07-23T03:34:18;4.60;;;3.70;;
46563;SDS011;32291;52.010;4.446;2022-07-23T03:35:20;5.00;;;3.65;;
46563;SDS011;32291;52.010;4.446;2022-07-23T03:36:22;4.15;;;3.67;;
46563;SDS011;32291;52.010;4.446;2022-07-23T03:37:24;4.78;;;4.10;;
46563;SDS011;32291;52.010;4.446;2022-07-23T03:38:26;4.18;;;3.67;;
46563;SDS011;32291;52.010;4.446;2022-07-23T03:39:29;5.00;;;4.40;;
46563;SDS011;32291;52.010;4.446;2022-07-23T03:40:31;4.22;;;3.85;;
46563;SDS011;32291;52.010;4.446;2022-07-23T03:41:33;4.65;;;4.18;;
46563;SDS011;32291;52.010;4.446;2022-07-23T03:42:35;4.95;;;4.45;;
46563;SDS011;32291;52.010;4.446;2022-07-23T03:43:38;6.75;;;3.75;;
46563;SDS011;32291;52.010;4.446;2022-07-23T03:44:39;4.80;;;3.55;;
46563;SDS011;32291;52.010;4.446;2022-07-23T03:45:42;4.53;;;3.90;;
46563;SDS011;32291;52.010;4.446;2022-07-23T03:46:43;4.00;;;3.45;;
46563;SDS011;32291;52.010;4.446;2022-07-23T03:47:45;6.35;;;4.05;;
46563;SDS011;32291;52.010;4.446;2022-07-23T03:48:47;6.03;;;4.07;;
46563;SDS011;32291;52.010;4.446;2022-07-23T03:49:49;6.03;;;4.03;;
46563;SDS011;32291;52.010;4.446;2022-07-23T03:50:51;4.55;;;3.97;;
46563;SDS011;32291;52.010;4.446;2022-07-23T03:51:54;4.45;;;4.05;;
46563;SDS011;32291;52.010;4.446;2022-07-23T03:52:56;5.45;;;3.85;;
46563;SDS011;32291;52.010;4.446;2022-07-23T03:53:58;4.72;;;3.92;;
46563;SDS011;32291;52.010;4.446;2022-07-23T03:55:00;5.18;;;4.68;;
46563;SDS011;32291;52.010;4.446;2022-07-23T03:56:04;4.50;;;4.10;;
46563;SDS011;32291;52.010;4.446;2022-07-23T03:57:06;5.53;;;4.82;;
46563;SDS011;32291;52.010;4.446;2022-07-23T03:58:08;5.38;;;4.28;;
46563;SDS011;32291;52.010;4.446;2022-07-23T03:59:10;4.43;;;3.63;;
46563;SDS011;32291;52.010;4.446;2022-07-23T04:00:12;4.70;;;4.00;;
46563;SDS011;32291;52.010;4.446;2022-07-23T04:01:15;4.40;;;4.00;;
46563;SDS011;32291;52.010;4.446;2022-07-23T04:02:17;5.72;;;3.88;;
46563;SDS011;32291;52.010;4.446;2022-07-23T04:03:19;4.53;;;3.83;;
46563;SDS011;32291;52.010;4.446;2022-07-23T04:04:21;6.88;;;3.72;;
46563;SDS011;32291;52.010;4.446;2022-07-23T04:05:23;5.13;;;3.88;;
46563;SDS011;32291;52.010;4.446;2022-07-23T04:06:25;5.80;;;4.43;;
46563;SDS011;32291;52.010;4.446;2022-07-23T04:07:27;4.72;;;4.32;;
46563;SDS011;32291;52.010;4.446;2022-07-23T04:08:29;5.53;;;4.93;;
46563;SDS011;32291;52.010;4.446;2022-07-23T04:09:31;9.48;;;4.57;;
46563;SDS011;32291;52.010;4.446;2022-07-23T04:10:34;5.03;;;4.60;;
46563;SDS011;32291;52.010;4.446;2022-07-23T04:11:36;9.02;;;4.60;;
46563;SDS011;32291;52.010;4.446;2022-07-23T04:12:38;6.88;;;4.43;;
46563;SDS011;32291;52.010;4.446;2022-07-23T04:13:40;6.18;;;4.28;;
46563;SDS011;32291;52.010;4.446;2022-07-23T04:14:42;4.47;;;4.07;;
46563;SDS011;32291;52.010;4.446;2022-07-23T04:15:44;6.40;;;4.50;;
46563;SDS011;32291;52.010;4.446;2022-07-23T04:16:46;5.10;;;4.10;;
46563;SDS011;32291;52.010;4.446;2022-07-23T04:17:48;5.10;;;4.70;;
46563;SDS011;32291;52.010;4.446;2022-07-23T04:18:50;4.90;;;4.40;;
46563;SDS011;32291;52.010;4.446;2022-07-23T04:19:53;5.18;;;4.00;;
46563;SDS011;32291;52.010;4.446;2022-07-23T04:20:55;4.57;;;4.10;;
46563;SDS011;32291;52.010;4.446;2022-07-23T04:21:57;4.10;;;3.70;;
46563;SDS011;32291;52.010;4.446;2022-07-23T04:22:59;4.32;;;3.92;;
46563;SDS011;32291;52.010;4.446;2022-07-23T04:24:01;5.72;;;4.22;;
46563;SDS011;32291;52.010;4.446;2022-07-23T04:25:04;4.75;;;4.30;;
46563;SDS011;32291;52.010;4.446;2022-07-23T04:26:06;4.85;;;4.38;;
46563;SDS011;32291;52.010;4.446;2022-07-23T04:27:08;4.20;;;3.80;;
46563;SDS011;32291;52.010;4.446;2022-07-23T04:28:10;4.35;;;3.80;;
46563;SDS011;32291;52.010;4.446;2022-07-23T04:29:12;5.00;;;3.80;;
46563;SDS011;32291;52.010;4.446;2022-07-23T04:30:14;6.32;;;4.95;;
46563;SDS011;32291;52.010;4.446;2022-07-23T04:31:16;5.30;;;4.75;;
46563;SDS011;32291;52.010;4.446;2022-07-23T04:32:18;4.55;;;4.15;;
46563;SDS011;32291;52.010;4.446;2022-07-23T04:33:20;5.60;;;4.70;;
46563;SDS011;32291;52.010;4.446;2022-07-23T04:34:22;5.80;;;4.68;;
46563;SDS011;32291;52.010;4.446;2022-07-23T04:35:25;6.10;;;5.03;;
46563;SDS011;32291;52.010;4.446;2022-07-23T04:36:27;4.90;;;4.00;;
46563;SDS011;32291;52.010;4.446;2022-07-23T04:37:29;4.60;;;4.13;;
46563;SDS011;32291;52.010;4.446;2022-07-23T04:38:31;5.53;;;3.80;;
46563;SDS011;32291;52.010;4.446;2022-07-23T04:39:34;6.95;;;4.40;;
46563;SDS011;32291;52.010;4.446;2022-07-23T04:40:36;6.28;;;4.72;;
46563;SDS011;32291;52.010;4.446;2022-07-23T04:41:38;5.75;;;4.40;;
46563;SDS011;32291;52.010;4.446;2022-07-23T04:42:40;6.70;;;4.55;;
46563;SDS011;32291;52.010;4.446;2022-07-23T04:43:42;4.82;;;4.28;;
46563;SDS011;32291;52.010;4.446;2022-07-23T04:44:45;4.90;;;4.55;;
46563;SDS011;32291;52.010;4.446;2022-07-23T04:45:47;5.43;;;4.18;;
46563;SDS011;32291;52.010;4.446;2022-07-23T04:46:54;5.05;;;4.35;;
46563;SDS011;32291;52.010;4.446;2022-07-23T04:47:56;6.45;;;4.30;;
46563;SDS011;32291;52.010;4.446;2022-07-23T04:48:58;4.78;;;4.20;;
46563;SDS011;32291;52.010;4.446;2022-07-23T04:50:00;4.68;;;4.28;;
46563;SDS011;32291;52.010;4.446;2022-07-23T04:51:02;5.20;;;3.90;;
46563;SDS011;32291;52.010;4.446;2022-07-23T04:52:05;4.35;;;3.95;;
46563;SDS011;32291;52.010;4.446;2022-07-23T04:53:07;4.35;;;3.95;;
46563;SDS011;32291;52.010;4.446;2022-07-23T04:54:09;4.53;;;3.97;;
46563;SDS011;32291;52.010;4.446;2022-07-23T04:55:11;5.00;;;4.60;;
46563;SDS011;32291;52.010;4.446;2022-07-23T04:56:13;5.53;;;4.65;;
46563;SDS011;32291;52.010;4.446;2022-07-23T04:57:15;6.00;;;4.65;;
46563;SDS011;32291;52.010;4.446;2022-07-23T04:58:17;6.15;;;4.20;;
46563;SDS011;32291;52.010;4.446;2022-07-23T04:59:19;5.22;;;4.68;;
46563;SDS011;32291;52.010;4.446;2022-07-23T05:00:21;5.72;;;4.95;;
46563;SDS011;32291;52.010;4.446;2022-07-23T05:01:23;4.80;;;4.35;;
46563;SDS011;32291;52.010;4.446;2022-07-23T05:02:25;4.57;;;4.03;;
46563;SDS011;32291;52.010;4.446;2022-07-23T05:03:27;6.82;;;4.68;;
46563;SDS011;32291;52.010;4.446;2022-07-23T05:04:30;5.05;;;4.40;;
46563;SDS011;32291;52.010;4.446;2022-07-23T05:05:32;6.00;;;4.30;;
46563;SDS011;32291;52.010;4.446;2022-07-23T05:06:34;5.30;;;4.40;;
46563;SDS011;32291;52.010;4.446;2022-07-23T05:07:36;5.75;;;4.28;;
46563;SDS011;32291;52.010;4.446;2022-07-23T05:08:37;7.28;;;5.05;;
46563;SDS011;32291;52.010;4.446;2022-07-23T05:09:40;5.18;;;4.45;;
46563;SDS011;32291;52.010;4.446;2022-07-23T05:10:42;5.68;;;4.45;;
46563;SDS011;32291;52.010;4.446;2022-07-23T05:11:44;4.60;;;4.20;;
46563;SDS011;32291;52.010;4.446;2022-07-23T05:12:45;9.07;;;4.57;;
46563;SDS011;32291;52.010;4.446;2022-07-23T05:13:47;5.78;;;4.95;;
46563;SDS011;32291;52.010;4.446;2022-07-23T05:14:49;5.60;;;4.38;;
46563;SDS011;32291;52.010;4.446;2022-07-23T05:15:51;4.55;;;4.15;;
46563;SDS011;32291;52.010;4.446;2022-07-23T05:16:54;5.20;;;4.40;;
46563;SDS011;32291;52.010;4.446;2022-07-23T05:17:56;6.00;;;4.47;;
46563;SDS011;32291;52.010;4.446;2022-07-23T05:18:58;5.05;;;4.40;;
46563;SDS011;32291;52.010;4.446;2022-07-23T05:20:00;4.20;;;3.80;;
46563;SDS011;32291;52.010;4.446;2022-07-23T05:21:02;5.30;;;4.57;;
46563;SDS011;32291;52.010;4.446;2022-07-23T05:22:04;6.50;;;4.30;;
46563;SDS011;32291;52.010;4.446;2022-07-23T05:23:06;5.00;;;4.30;;
46563;SDS011;32291;52.010;4.446;2022-07-23T05:24:09;5.22;;;4.78;;
46563;SDS011;32291;52.010;4.446;2022-07-23T05:25:11;4.75;;;4.30;;
46563;SDS011;32291;52.010;4.446;2022-07-23T05:26:13;7.40;;;5.20;;
46563;SDS011;32291;52.010;4.446;2022-07-23T05:27:15;5.95;;;5.35;;
46563;SDS011;32291;52.010;4.446;2022-07-23T05:28:17;4.50;;;3.72;;
46563;SDS011;32291;52.010;4.446;2022-07-23T05:29:19;5.07;;;4.57;;
46563;SDS011;32291;52.010;4.446;2022-07-23T05:30:21;4.93;;;4.53;;
46563;SDS011;32291;52.010;4.446;2022-07-23T05:31:23;4.53;;;4.13;;
46563;SDS011;32291;52.010;4.446;2022-07-23T05:32:25;6.75;;;4.40;;
46563;SDS011;32291;52.010;4.446;2022-07-23T05:33:27;6.30;;;4.60;;
46563;SDS011;32291;52.010;4.446;2022-07-23T05:34:29;5.30;;;4.47;;
46563;SDS011;32291;52.010;4.446;2022-07-23T05:35:31;4.75;;;4.35;;
46563;SDS011;32291;52.010;4.446;2022-07-23T05:36:33;5.15;;;4.63;;
46563;SDS011;32291;52.010;4.446;2022-07-23T05:37:35;5.07;;;4.57;;
46563;SDS011;32291;52.010;4.446;2022-07-23T05:38:38;5.65;;;5.00;;
46563;SDS011;32291;52.010;4.446;2022-07-23T05:39:40;6.47;;;5.90;;
46563;SDS011;32291;52.010;4.446;2022-07-23T05:40:43;5.78;;;5.25;;
46563;SDS011;32291;52.010;4.446;2022-07-23T05:41:45;5.53;;;4.93;;
46563;SDS011;32291;52.010;4.446;2022-07-23T05:42:46;7.40;;;5.28;;
46563;SDS011;32291;52.010;4.446;2022-07-23T05:43:48;8.40;;;6.10;;
46563;SDS011;32291;52.010;4.446;2022-07-23T05:44:50;6.53;;;5.93;;
46563;SDS011;32291;52.010;4.446;2022-07-23T05:45:53;6.78;;;6.18;;
46563;SDS011;32291;52.010;4.446;2022-07-23T05:46:55;8.35;;;5.50;;
46563;SDS011;32291;52.010;4.446;2022-07-23T05:47:57;5.57;;;5.07;;
46563;SDS011;32291;52.010;4.446;2022-07-23T05:48:59;6.75;;;6.15;;
46563;SDS011;32291;52.010;4.446;2022-07-23T05:50:00;5.80;;;5.20;;
46563;SDS011;32291;52.010;4.446;2022-07-23T05:51:04;8.80;;;5.38;;
46563;SDS011;32291;52.010;4.446;2022-07-23T05:52:07;5.53;;;5.03;;
46563;SDS011;32291;52.010;4.446;2022-07-23T05:53:10;5.40;;;4.90;;
46563;SDS011;32291;52.010;4.446;2022-07-23T05:54:12;6.18;;;5.18;;
46563;SDS011;32291;52.010;4.446;2022-07-23T05:55:14;6.47;;;5.85;;
46563;SDS011;32291;52.010;4.446;2022-07-23T05:56:17;7.90;;;5.13;;
46563;SDS011;32291;52.010;4.446;2022-07-23T05:57:21;6.72;;;5.25;;
46563;SDS011;32291;52.010;4.446;2022-07-23T05:58:23;7.63;;;6.82;;
46563;SDS011;32291;52.010;4.446;2022-07-23T05:59:25;5.35;;;4.50;;
46563;SDS011;32291;52.010;4.446;2022-07-23T06:00:27;6.95;;;4.78;;
46563;SDS011;32291;52.010;4.446;2022-07-23T06:01:30;5.35;;;4.45;;
46563;SDS011;32291;52.010;4.446;2022-07-23T06:02:32;4.78;;;4.35;;
46563;SDS011;32291;52.010;4.446;2022-07-23T06:03:34;5.18;;;4.68;;
46563;SDS011;32291;52.010;4.446;2022-07-23T06:04:36;4.25;;;3.95;;
46563;SDS011;32291;52.010;4.446;2022-07-23T06:05:38;5.47;;;4.05;;
46563;SDS011;32291;52.010;4.446;2022-07-23T06:06:40;5.85;;;4.07;;
46563;SDS011;32291;52.010;4.446;2022-07-23T06:07:41;5.60;;;3.90;;
46563;SDS011;32291;52.010;4.446;2022-07-23T06:08:44;4.07;;;3.67;;
46563;SDS011;32291;52.010;4.446;2022-07-23T06:09:46;4.45;;;3.60;;
46563;SDS011;32291;52.010;4.446;2022-07-23T06:10:49;5.40;;;4.68;;
46563;SDS011;32291;52.010;4.446;2022-07-23T06:11:51;6.65;;;4.80;;
46563;SDS011;32291;52.010;4.446;2022-07-23T06:12:53;5.40;;;4.20;;
46563;SDS011;32291;52.010;4.446;2022-07-23T06:13:55;4.50;;;4.05;;
46563;SDS011;32291;52.010;4.446;2022-07-23T06:14:57;5.20;;;4.40;;
46563;SDS011;32291;52.010;4.446;2022-07-23T06:15:59;5.47;;;4.97;;